createdAt,value
2018-07-07T00:02:04.425Z,15.40
2018-07-07T00:04:32.474Z,15.30
2018-07-07T00:07:00.527Z,15.20
2018-07-07T00:09:28.510Z,15.20
2018-07-07T00:11:56.497Z,15.10
2018-07-07T00:14:25.054Z,15.10
2018-07-07T00:16:53.026Z,15.10
2018-07-07T00:19:21.067Z,15.00
2018-07-07T00:21:49.225Z,15.00
2018-07-07T00:24:17.260Z,14.90
2018-07-07T00:29:13.160Z,14.80
2018-07-07T00:31:41.240Z,14.80
2018-07-07T00:34:09.220Z,14.70
2018-07-07T00:36:37.228Z,14.70
2018-07-07T00:39:05.314Z,14.60
2018-07-07T00:41:33.334Z,14.50
2018-07-07T00:44:01.440Z,14.50
2018-07-07T00:46:29.452Z,14.50
2018-07-07T00:48:57.540Z,14.40
2018-07-07T00:51:25.512Z,14.40
2018-07-07T00:53:54.520Z,14.40
2018-07-07T00:56:22.492Z,14.30
2018-07-07T00:58:50.528Z,14.30
2018-07-07T01:01:18.596Z,14.30
2018-07-07T01:03:46.694Z,14.20
2018-07-07T01:06:24.520Z,14.10
2018-07-07T01:08:52.516Z,14.10
2018-07-07T01:13:48.414Z,14.00
2018-07-07T01:16:18.136Z,14.00
2018-07-07T01:18:46.414Z,13.90
2018-07-07T01:21:14.757Z,13.90
2018-07-07T01:23:45.557Z,13.90
2018-07-07T01:26:20.075Z,13.80
2018-07-07T01:31:15.915Z,13.70
2018-07-07T01:33:43.930Z,13.70
2018-07-07T01:36:11.907Z,13.60
2018-07-07T01:41:07.701Z,13.60
2018-07-07T01:43:35.664Z,13.50
2018-07-07T01:46:03.704Z,13.50
2018-07-07T01:48:31.660Z,13.50
2018-07-07T01:50:59.754Z,13.50
2018-07-07T01:53:27.759Z,13.40
2018-07-07T01:55:55.810Z,13.40
2018-07-07T01:58:23.881Z,13.40
2018-07-07T02:03:19.697Z,13.30
2018-07-07T02:05:47.680Z,13.20
2018-07-07T02:08:15.747Z,13.20
2018-07-07T02:10:43.722Z,13.20
2018-07-07T02:13:11.771Z,13.20
2018-07-07T02:15:39.780Z,13.20
2018-07-07T02:18:07.760Z,13.10
2018-07-07T02:20:35.742Z,13.10
2018-07-07T02:23:03.932Z,13.10
2018-07-07T02:25:31.904Z,13.00
2018-07-07T02:27:59.928Z,13.00
2018-07-07T02:30:27.909Z,12.90
2018-07-07T02:32:56.124Z,12.90
2018-07-07T02:35:24.083Z,12.90
2018-07-07T02:37:52.056Z,12.90
2018-07-07T02:40:20.018Z,12.90
2018-07-07T02:42:48.001Z,12.80
2018-07-07T02:45:15.982Z,12.80
2018-07-07T02:47:44.037Z,12.80
2018-07-07T02:50:12.055Z,12.80
2018-07-07T02:52:40.068Z,12.80
2018-07-07T02:55:08.060Z,12.70
2018-07-07T03:00:03.973Z,12.70
2018-07-07T03:02:31.949Z,12.70
2018-07-07T03:04:59.912Z,12.70
2018-07-07T03:07:28.042Z,12.60
2018-07-07T03:09:56.199Z,12.70
2018-07-07T03:12:24.272Z,12.60
2018-07-07T03:14:52.254Z,12.60
2018-07-07T03:17:20.249Z,12.60
2018-07-07T03:19:48.247Z,12.60
2018-07-07T03:22:16.233Z,12.70
2018-07-07T03:24:44.324Z,12.60
2018-07-07T03:27:12.293Z,12.70
2018-07-07T03:29:40.350Z,12.70
2018-07-07T03:32:08.436Z,12.70
2018-07-07T03:34:36.495Z,12.70
2018-07-07T03:39:32.388Z,12.70
2018-07-07T03:42:00.393Z,12.70
2018-07-07T03:44:28.527Z,12.70
2018-07-07T03:49:24.408Z,12.80
2018-07-07T03:51:52.356Z,12.90
2018-07-07T03:54:20.319Z,12.90
2018-07-07T03:56:48.344Z,12.90
2018-07-07T04:01:44.115Z,12.90
2018-07-07T04:04:12.077Z,12.90
2018-07-07T04:09:08.065Z,12.90
2018-07-07T04:11:37.002Z,13.00
2018-07-07T04:14:05.079Z,13.00
2018-07-07T04:16:33.050Z,13.00
2018-07-07T04:19:01.118Z,13.10
2018-07-07T04:21:29.104Z,13.20
2018-07-07T04:23:57.193Z,13.20
2018-07-07T04:26:25.167Z,13.20
2018-07-07T04:28:53.251Z,13.20
2018-07-07T04:31:21.220Z,13.10
2018-07-07T04:36:17.043Z,13.20
2018-07-07T04:38:45.102Z,13.20
2018-07-07T04:41:13.108Z,13.30
2018-07-07T04:43:41.087Z,13.40
2018-07-07T04:46:09.145Z,13.50
2018-07-07T04:48:37.863Z,13.50
2018-07-07T04:51:05.847Z,13.50
2018-07-07T04:53:33.911Z,13.50
2018-07-07T04:56:01.977Z,13.60
2018-07-07T04:58:29.965Z,13.70
2018-07-07T05:00:58.036Z,13.80
2018-07-07T05:03:26.041Z,13.80
2018-07-07T05:05:54.093Z,13.80
2018-07-07T05:10:49.975Z,13.90
2018-07-07T05:13:17.984Z,13.90
2018-07-07T05:15:45.982Z,13.90
2018-07-07T05:18:13.981Z,13.90
2018-07-07T05:20:42.097Z,13.90
2018-07-07T05:25:39.440Z,13.80
2018-07-07T05:28:07.411Z,13.90
2018-07-07T05:30:35.399Z,13.80
2018-07-07T05:33:03.407Z,13.80
2018-07-07T05:35:32.853Z,13.90
2018-07-07T05:38:02.104Z,14.00
2018-07-07T05:40:30.519Z,14.10
2018-07-07T05:42:58.592Z,14.20
2018-07-07T05:45:26.603Z,14.40
2018-07-07T05:47:55.286Z,14.50
2018-07-07T05:50:23.254Z,14.60
2018-07-07T05:52:51.924Z,14.60
2018-07-07T05:55:19.942Z,14.60
2018-07-07T05:57:48.119Z,14.50
2018-07-07T06:00:16.447Z,14.50
2018-07-07T06:02:44.471Z,14.40
2018-07-07T06:05:12.619Z,14.50
2018-07-07T06:07:40.655Z,14.40
2018-07-07T06:10:08.926Z,14.30
2018-07-07T06:12:37.256Z,14.40
2018-07-07T06:15:05.984Z,14.60
2018-07-07T06:17:33.951Z,14.70
2018-07-07T06:20:02.127Z,14.70
2018-07-07T06:22:30.295Z,14.70
2018-07-07T06:24:58.398Z,14.80
2018-07-07T06:27:26.411Z,14.90
2018-07-07T06:29:54.374Z,15.00
2018-07-07T06:32:22.353Z,15.10
2018-07-07T06:34:50.364Z,15.20
2018-07-07T06:37:18.320Z,15.30
2018-07-07T06:39:46.350Z,15.40
2018-07-07T06:42:14.360Z,15.40
2018-07-07T06:44:42.491Z,15.50
2018-07-07T06:47:10.547Z,15.70
2018-07-07T06:49:38.654Z,15.90
2018-07-07T06:52:06.756Z,16.10
2018-07-07T06:57:02.852Z,16.30
2018-07-07T06:59:30.842Z,16.20
2018-07-07T07:01:58.800Z,16.10
2018-07-07T07:06:54.667Z,16.30
2018-07-07T07:09:22.810Z,16.20
2018-07-07T07:11:52.045Z,16.20
2018-07-07T07:14:20.058Z,16.30
2018-07-07T07:16:48.177Z,16.50
2018-07-07T07:19:16.163Z,16.80
2018-07-07T07:21:44.231Z,16.90
2018-07-07T07:24:12.315Z,16.90
2018-07-07T07:26:41.386Z,16.90
2018-07-07T07:29:09.446Z,16.80
2018-07-07T07:31:37.569Z,17.00
2018-07-07T07:34:05.583Z,17.20
2018-07-07T07:36:39.078Z,17.20
2018-07-07T07:39:07.345Z,17.40
2018-07-07T07:41:36.206Z,17.20
2018-07-07T07:44:05.881Z,17.10
2018-07-07T07:46:34.478Z,17.20
2018-07-07T07:49:02.670Z,17.30
2018-07-07T07:51:30.799Z,17.60
2018-07-07T07:53:59.075Z,17.80
2018-07-07T07:56:28.004Z,17.90
2018-07-07T07:58:56.732Z,18.10
2018-07-07T08:01:24.879Z,18.10
2018-07-07T08:03:52.996Z,18.20
2018-07-07T08:08:49.227Z,18.40
2018-07-07T08:11:17.277Z,18.40
2018-07-07T08:13:45.362Z,18.60
2018-07-07T08:16:13.787Z,18.90
2018-07-07T08:18:42.898Z,18.90
2018-07-07T08:21:10.946Z,19.10
2018-07-07T08:23:39.072Z,19.30
2018-07-07T08:26:07.159Z,19.60
2018-07-07T08:28:35.228Z,19.80
2018-07-07T08:31:03.371Z,20.10
2018-07-07T08:33:31.391Z,20.40
2018-07-07T08:35:59.447Z,20.70
2018-07-07T08:38:27.457Z,20.70
2018-07-07T08:40:55.605Z,20.20
2018-07-07T08:45:51.495Z,19.50
2018-07-07T08:48:19.740Z,19.40
2018-07-07T08:50:47.982Z,19.10
2018-07-07T08:53:16.062Z,19.10
2018-07-07T08:55:44.386Z,18.90
2018-07-07T08:58:12.401Z,19.00
2018-07-07T09:03:08.401Z,19.40
2018-07-07T09:05:36.483Z,19.50
2018-07-07T09:08:04.921Z,19.60
2018-07-07T09:10:33.220Z,19.70
2018-07-07T09:13:01.226Z,19.90
2018-07-07T09:17:57.431Z,20.10
2018-07-07T09:20:25.550Z,20.10
2018-07-07T09:22:54.874Z,20.20
2018-07-07T09:25:22.892Z,20.40
2018-07-07T09:27:50.896Z,20.40
2018-07-07T09:30:22.373Z,20.60
2018-07-07T09:35:19.410Z,20.80
2018-07-07T09:40:15.321Z,21.10
2018-07-07T09:42:43.439Z,21.10
2018-07-07T09:45:11.470Z,21.20
2018-07-07T09:47:39.615Z,21.20
2018-07-07T09:50:07.648Z,21.20
2018-07-07T09:52:35.627Z,21.10
2018-07-07T09:55:03.856Z,20.90
2018-07-07T09:57:32.141Z,20.80
2018-07-07T10:00:00.200Z,21.00
2018-07-07T10:02:28.332Z,21.10
2018-07-07T10:04:56.528Z,20.90
2018-07-07T10:09:52.449Z,21.00
2018-07-07T10:12:20.726Z,20.80
2018-07-07T10:14:49.198Z,20.80
2018-07-07T10:17:17.474Z,20.70
2018-07-07T10:19:45.896Z,20.90
2018-07-07T10:22:13.905Z,21.00
2018-07-07T10:24:41.939Z,21.20
2018-07-07T10:27:10.063Z,21.30
2018-07-07T10:29:38.507Z,21.50
2018-07-07T10:32:06.719Z,21.60
2018-07-07T10:34:34.831Z,21.70
2018-07-07T10:37:03.256Z,21.80
2018-07-07T10:41:59.364Z,22.00
2018-07-07T10:44:27.519Z,22.00
2018-07-07T10:49:23.435Z,22.00
2018-07-07T10:51:51.499Z,22.20
2018-07-07T10:54:19.576Z,22.40
2018-07-07T10:56:47.932Z,22.70
2018-07-07T11:01:43.962Z,22.60
2018-07-07T11:04:12.244Z,22.80
2018-07-07T11:06:40.359Z,23.00
2018-07-07T11:09:08.452Z,23.00
2018-07-07T11:11:36.477Z,23.10
2018-07-07T11:14:04.614Z,23.20
2018-07-07T11:16:32.964Z,23.40
2018-07-07T11:19:01.148Z,23.10
2018-07-07T11:21:29.237Z,23.30
2018-07-07T11:23:57.540Z,23.30
2018-07-07T11:26:26.964Z,23.50
2018-07-07T11:28:55.066Z,23.40
2018-07-07T11:31:23.124Z,23.50
2018-07-07T11:33:51.189Z,23.80
2018-07-07T11:36:19.352Z,24.00
2018-07-07T11:41:18.333Z,24.20
2018-07-07T11:43:46.532Z,24.00
2018-07-07T11:46:14.587Z,24.00
2018-07-07T11:48:42.744Z,24.10
2018-07-07T11:51:11.203Z,24.10
2018-07-07T11:53:39.244Z,24.00
2018-07-07T11:58:35.199Z,23.90
2018-07-07T12:03:31.116Z,23.90
2018-07-07T12:08:28.095Z,23.70
2018-07-07T12:10:58.130Z,23.80
2018-07-07T12:13:26.247Z,23.90
2018-07-07T12:15:54.379Z,24.10
2018-07-07T12:18:22.457Z,24.00
2018-07-07T12:20:50.785Z,24.10
2018-07-07T12:23:18.980Z,24.20
2018-07-07T12:25:46.955Z,24.20
2018-07-07T12:28:15.111Z,24.20
2018-07-07T12:30:43.613Z,24.20
2018-07-07T12:33:11.859Z,24.30
2018-07-07T12:38:08.063Z,24.50
2018-07-07T12:40:36.781Z,24.60
2018-07-07T12:44:10.689Z,24.60
2018-07-07T12:46:39.200Z,24.70
2018-07-07T12:49:07.419Z,24.60
2018-07-07T12:51:35.425Z,24.70
2018-07-07T12:56:31.564Z,24.70
2018-07-07T12:59:00.290Z,24.70
2018-07-07T13:01:28.971Z,24.80
2018-07-07T13:03:57.014Z,25.00
2018-07-07T13:06:25.327Z,25.00
2018-07-07T13:08:53.461Z,25.00
2018-07-07T13:13:51.260Z,25.20
2018-07-07T13:16:19.662Z,25.10
2018-07-07T13:18:48.808Z,25.00
2018-07-07T13:21:18.106Z,25.20
2018-07-07T13:23:46.470Z,25.30
2018-07-07T13:26:15.644Z,25.30
2018-07-07T13:28:44.184Z,25.30
2018-07-07T13:33:40.266Z,25.30
2018-07-07T13:36:08.374Z,25.40
2018-07-07T13:38:38.220Z,25.40
2018-07-07T13:41:08.037Z,25.30
2018-07-07T13:43:37.462Z,25.20
2018-07-07T13:46:05.841Z,25.10
2018-07-07T13:48:33.914Z,25.30
2018-07-07T13:51:02.130Z,25.40
2018-07-07T13:53:31.358Z,25.50
2018-07-07T13:55:59.662Z,25.70
2018-07-07T13:58:28.431Z,25.70
2018-07-07T14:00:58.854Z,25.80
2018-07-07T14:03:27.503Z,25.70
2018-07-07T14:08:24.184Z,25.90
2018-07-07T14:10:52.557Z,26.00
2018-07-07T14:13:20.710Z,26.00
2018-07-07T14:15:50.019Z,26.10
2018-07-07T14:18:19.930Z,26.30
2018-07-07T14:20:48.151Z,26.50
2018-07-07T14:23:19.008Z,26.40
2018-07-07T14:25:47.437Z,26.40
2018-07-07T14:28:17.565Z,26.20
2018-07-07T14:30:45.951Z,26.30
2018-07-07T14:38:10.270Z,26.50
2018-07-07T14:40:44.584Z,26.70
2018-07-07T14:43:13.067Z,27.00
2018-07-07T14:45:54.453Z,27.10
2018-07-07T14:48:23.971Z,26.90
2018-07-07T14:50:52.759Z,26.70
2018-07-07T14:53:30.039Z,26.50
2018-07-07T14:55:58.658Z,26.40
2018-07-07T14:58:27.355Z,26.40
2018-07-07T15:00:55.505Z,26.30
2018-07-07T15:03:25.645Z,26.50
2018-07-07T15:05:54.965Z,26.40
2018-07-07T15:08:23.477Z,26.30
2018-07-07T15:10:51.679Z,26.40
2018-07-07T15:13:19.743Z,26.50
2018-07-07T15:15:47.812Z,26.50
2018-07-07T15:18:15.998Z,26.60
2018-07-07T15:20:44.801Z,26.80
2018-07-07T15:23:13.194Z,27.10
2018-07-07T15:25:41.513Z,27.20
2018-07-07T15:28:09.748Z,27.40
2018-07-07T15:30:38.732Z,27.90
2018-07-07T15:33:07.173Z,28.10
2018-07-07T15:38:04.443Z,27.80
2018-07-07T15:40:40.993Z,27.80
2018-07-07T15:43:10.159Z,28.30
2018-07-07T15:48:08.415Z,30.00
2018-07-07T15:50:37.604Z,31.20
2018-07-07T15:53:06.348Z,32.10
2018-07-07T15:55:36.507Z,32.70
2018-07-07T15:58:04.699Z,33.20
2018-07-07T16:00:33.027Z,32.30
2018-07-07T16:03:15.878Z,32.30
2018-07-07T16:05:44.136Z,32.60
2018-07-07T16:08:13.003Z,32.80
2018-07-07T16:10:41.658Z,33.20
2018-07-07T16:13:11.429Z,33.90
2018-07-07T16:15:40.822Z,34.00
2018-07-07T16:18:09.834Z,34.00
2018-07-07T16:20:38.811Z,34.00
2018-07-07T16:23:06.934Z,34.80
2018-07-07T16:25:40.122Z,34.30
2018-07-07T16:30:36.950Z,34.50
2018-07-07T16:33:05.498Z,35.00
2018-07-07T16:35:33.901Z,35.20
2018-07-07T16:38:02.078Z,35.50
2018-07-07T16:40:30.243Z,36.10
2018-07-07T16:42:59.966Z,36.00
2018-07-07T16:45:28.472Z,35.80
2018-07-07T16:47:56.484Z,35.70
2018-07-07T16:50:24.607Z,35.70
2018-07-07T17:00:17.151Z,34.50
2018-07-07T17:02:46.001Z,34.10
2018-07-07T17:05:14.428Z,34.20
2018-07-07T17:07:46.066Z,34.60
2018-07-07T17:10:14.904Z,34.40
2018-07-07T17:12:43.304Z,34.70
2018-07-07T17:15:12.507Z,35.70
2018-07-07T17:17:40.680Z,36.30
2018-07-07T17:20:08.866Z,36.10
2018-07-07T17:22:39.331Z,35.70
2018-07-07T17:27:37.384Z,34.60
2018-07-07T17:30:05.777Z,33.80
2018-07-07T17:32:33.782Z,33.90
2018-07-07T17:35:02.166Z,33.30
2018-07-07T17:37:30.532Z,33.50
2018-07-07T17:39:58.753Z,33.10
2018-07-07T17:42:27.132Z,32.80
2018-07-07T17:44:56.279Z,32.10
2018-07-07T17:47:26.459Z,31.50
2018-07-07T17:49:54.575Z,31.80
2018-07-07T17:52:23.029Z,31.20
2018-07-07T17:57:21.664Z,31.30
2018-07-07T17:59:50.316Z,31.70
2018-07-07T18:02:18.469Z,31.90
2018-07-07T18:04:46.939Z,31.60
2018-07-07T18:07:15.343Z,31.50
2018-07-07T18:09:43.355Z,31.70
2018-07-07T18:12:11.460Z,31.50
2018-07-07T18:14:39.435Z,30.90
2018-07-07T18:17:07.494Z,30.40
2018-07-07T18:19:35.475Z,30.30
2018-07-07T18:22:03.853Z,30.70
2018-07-07T18:24:31.876Z,30.60
2018-07-07T18:27:00.050Z,30.10
2018-07-07T18:29:28.487Z,29.70
2018-07-07T18:31:56.869Z,29.20
2018-07-07T18:34:25.135Z,29.00
2018-07-07T18:36:54.287Z,28.60
2018-07-07T18:41:50.707Z,28.20
2018-07-07T18:44:19.057Z,27.40
2018-07-07T18:46:48.281Z,26.50
2018-07-07T18:51:44.339Z,25.00
2018-07-07T18:54:12.411Z,24.60
2018-07-07T18:56:40.407Z,24.30
2018-07-07T18:59:09.371Z,24.10
2018-07-07T19:01:37.821Z,23.80
2018-07-07T19:04:06.013Z,23.50
2018-07-07T19:06:36.712Z,23.40
2018-07-07T19:09:05.521Z,23.20
2018-07-07T19:11:33.942Z,23.00
2018-07-07T19:14:04.796Z,22.90
2018-07-07T19:19:01.215Z,22.60
2018-07-07T19:21:35.349Z,22.50
2018-07-07T19:24:09.724Z,22.40
2018-07-07T19:26:45.491Z,22.30
2018-07-07T19:29:15.167Z,22.20
2018-07-07T19:31:53.022Z,22.10
2018-07-07T19:34:26.725Z,22.00
2018-07-07T19:39:28.360Z,21.80
2018-07-07T19:41:57.026Z,21.80
2018-07-07T19:44:25.292Z,21.70
2018-07-07T19:46:53.723Z,21.60
2018-07-07T19:49:21.721Z,21.50
2018-07-07T19:51:49.947Z,21.50
2018-07-07T19:54:18.338Z,21.40
2018-07-07T19:56:46.501Z,21.30
2018-07-07T19:59:14.857Z,21.30
2018-07-07T20:01:42.917Z,21.20
2018-07-07T20:04:11.159Z,21.10
2018-07-07T20:06:39.878Z,21.00
2018-07-07T20:09:08.267Z,21.00
2018-07-07T20:11:36.321Z,20.90
2018-07-07T20:16:44.509Z,20.80
2018-07-07T20:19:24.935Z,20.70
2018-07-07T20:21:59.434Z,20.70
2018-07-07T20:24:31.300Z,20.60
2018-07-07T20:29:34.079Z,20.50
2018-07-07T20:34:31.223Z,20.40
2018-07-07T20:36:59.713Z,20.40
2018-07-07T20:39:27.980Z,20.30
2018-07-07T20:41:56.110Z,20.30
2018-07-07T20:44:24.198Z,20.20
2018-07-07T20:46:52.335Z,20.20
2018-07-07T20:49:20.305Z,20.10
2018-07-07T20:51:48.639Z,20.10
2018-07-07T20:54:17.000Z,20.00
2018-07-07T20:56:45.089Z,19.90
2018-07-07T20:59:14.510Z,19.80
2018-07-07T21:01:42.908Z,19.80
2018-07-07T21:04:11.062Z,19.70
2018-07-07T21:06:39.227Z,19.60
2018-07-07T21:11:36.907Z,19.50
2018-07-07T21:14:04.892Z,19.50
2018-07-07T21:16:33.501Z,19.40
2018-07-07T21:19:01.770Z,19.30
2018-07-07T21:21:30.695Z,19.30
2018-07-07T21:23:58.743Z,19.30
2018-07-07T21:26:26.928Z,19.20
2018-07-07T21:28:54.978Z,19.20
2018-07-07T21:31:22.991Z,19.10
2018-07-07T21:33:51.380Z,19.00
2018-07-07T21:36:19.540Z,19.00
2018-07-07T21:41:15.792Z,18.90
2018-07-07T21:43:44.171Z,18.80
2018-07-07T21:46:12.129Z,18.80
2018-07-07T21:48:40.632Z,18.70
2018-07-07T21:51:08.726Z,18.70
2018-07-07T21:53:36.869Z,18.60
2018-07-07T21:56:05.282Z,18.60
2018-07-07T21:58:33.351Z,18.60
2018-07-07T22:01:24.805Z,18.50
2018-07-07T22:03:59.308Z,18.50
2018-07-07T22:06:33.067Z,18.40
2018-07-07T22:09:02.157Z,18.40
2018-07-07T22:11:30.359Z,18.40
2018-07-07T22:13:58.577Z,18.30
2018-07-07T22:21:38.701Z,18.20
2018-07-07T22:24:07.018Z,18.10
2018-07-07T22:26:35.181Z,18.10
2018-07-07T22:29:03.324Z,18.00
2018-07-07T22:31:31.450Z,18.00
2018-07-07T22:33:59.514Z,17.90
2018-07-07T22:36:33.564Z,17.90
2018-07-07T22:41:54.467Z,17.80
2018-07-07T22:44:22.680Z,17.80
2018-07-07T22:46:51.050Z,17.70
2018-07-07T22:49:19.165Z,17.70
2018-07-07T22:51:47.254Z,17.70
2018-07-07T22:54:15.259Z,17.60
2018-07-07T22:59:12.863Z,17.60
2018-07-07T23:06:39.459Z,17.40
2018-07-07T23:09:08.847Z,17.40
2018-07-07T23:11:36.995Z,17.40
2018-07-07T23:14:05.175Z,17.40
2018-07-07T23:16:33.288Z,17.40
2018-07-07T23:19:02.439Z,17.30
2018-07-07T23:21:30.477Z,17.30
2018-07-07T23:23:58.688Z,17.20
2018-07-07T23:26:27.179Z,17.20
2018-07-07T23:28:55.179Z,17.10
2018-07-07T23:31:23.289Z,17.10
2018-07-07T23:33:52.356Z,17.10
2018-07-07T23:36:20.471Z,17.00
2018-07-07T23:38:48.646Z,16.90
2018-07-07T23:41:16.727Z,16.90
2018-07-07T23:43:44.830Z,16.80
2018-07-07T23:46:12.884Z,16.80
2018-07-07T23:48:41.031Z,16.70
2018-07-07T23:51:11.091Z,16.70
2018-07-07T23:53:39.879Z,16.70
2018-07-07T23:56:08.274Z,16.60
2018-07-07T23:58:36.263Z,16.60
